createdAt,value
2022-09-20T00:07:27.028Z,95.70
2022-09-20T00:17:28.703Z,95.80
2022-09-20T00:27:31.347Z,95.70
2022-09-20T00:37:33.243Z,96.10
2022-09-20T00:47:38.183Z,95.80
2022-09-20T00:57:40.190Z,96.00
2022-09-20T01:07:44.146Z,95.70
2022-09-20T01:17:50.562Z,95.80
2022-09-20T01:27:54.224Z,95.90
2022-09-20T01:38:04.511Z,96.00
2022-09-20T01:48:24.494Z,96.30
2022-09-20T01:59:22.460Z,96.20
2022-09-20T02:09:41.761Z,96.10
2022-09-20T02:20:17.608Z,96.10
2022-09-20T02:30:44.239Z,96.30
2022-09-20T02:41:00.761Z,96.50
2022-09-20T02:51:25.832Z,96.60
2022-09-20T03:01:44.998Z,96.80
2022-09-20T03:12:05.334Z,97.00
2022-09-20T03:22:47.935Z,97.40
2022-09-20T03:33:13.313Z,97.00
2022-09-20T03:43:24.038Z,97.40
2022-09-20T03:53:46.318Z,97.40
2022-09-20T04:03:59.528Z,97.20
2022-09-20T04:14:18.485Z,97.50
2022-09-20T04:24:38.350Z,97.70
2022-09-20T04:35:21.262Z,97.90
2022-09-20T04:45:42.223Z,97.70
2022-09-20T04:56:03.065Z,97.80
2022-09-20T05:06:15.595Z,98.10
2022-09-20T05:16:58.085Z,98.30
2022-09-20T05:27:09.606Z,98.30
2022-09-20T05:37:26.438Z,98.10
2022-09-20T05:47:48.766Z,97.90
2022-09-20T05:58:28.201Z,98.20
2022-09-20T06:09:00.951Z,98.00
2022-09-20T06:19:17.230Z,97.80
2022-09-20T06:29:34.623Z,97.80
2022-09-20T06:40:21.614Z,97.90
2022-09-20T06:50:23.679Z,97.60
2022-09-20T07:00:25.483Z,97.10
2022-09-20T07:10:28.156Z,97.30
2022-09-20T07:20:29.819Z,97.30
2022-09-20T07:30:31.487Z,96.70
2022-09-20T07:40:33.130Z,97.00
2022-09-20T07:50:35.495Z,96.50
2022-09-20T08:00:37.166Z,96.20
2022-09-20T08:10:41.302Z,95.90
2022-09-20T08:20:42.958Z,95.00
2022-09-20T08:30:44.631Z,94.50
2022-09-20T08:40:48.530Z,93.70
2022-09-20T08:50:50.215Z,93.20
2022-09-20T09:00:52.315Z,92.70
2022-09-20T09:10:56.342Z,92.60
2022-09-20T09:21:02.519Z,91.70
2022-09-20T09:31:22.189Z,92.00
2022-09-20T09:41:35.286Z,92.10
2022-09-20T09:51:37.439Z,92.50
2022-09-20T10:02:04.276Z,92.10
2022-09-20T10:12:27.054Z,91.10
2022-09-20T10:23:06.581Z,90.50
2022-09-20T10:33:37.542Z,87.60
2022-09-20T10:44:05.638Z,87.70
2022-09-20T10:54:23.775Z,83.40
2022-09-20T11:04:50.092Z,84.20
2022-09-20T11:15:00.078Z,82.00
2022-09-20T11:25:21.673Z,81.90
2022-09-20T11:35:42.731Z,83.20
2022-09-20T11:45:47.729Z,84.10
2022-09-20T11:56:13.999Z,85.00
2022-09-20T12:06:30.927Z,86.50
2022-09-20T12:16:44.653Z,86.90
2022-09-20T12:26:47.493Z,85.40
2022-09-20T12:36:55.319Z,78.60
2022-09-20T12:47:11.051Z,77.30
2022-09-20T12:57:32.091Z,77.40
2022-09-20T13:07:43.740Z,77.80
2022-09-20T13:17:51.991Z,78.80
2022-09-20T13:27:57.379Z,79.50
2022-09-20T13:38:01.966Z,80.90
2022-09-20T13:48:03.685Z,82.30
2022-09-20T13:58:32.513Z,84.10
2022-09-20T14:08:45.289Z,87.60
2022-09-20T14:18:48.304Z,90.20
2022-09-20T14:28:50.419Z,90.90
2022-09-20T14:38:59.030Z,90.80
2022-09-20T14:49:25.618Z,90.60
2022-09-20T14:59:35.142Z,91.10
2022-09-20T15:09:37.124Z,91.00
2022-09-20T15:19:38.791Z,91.70
2022-09-20T15:29:40.757Z,91.90
2022-09-20T15:39:42.366Z,92.30
2022-09-20T15:49:46.604Z,92.60
2022-09-20T15:59:50.055Z,92.70
2022-09-20T16:09:53.743Z,93.00
2022-09-20T16:19:55.372Z,92.70
2022-09-20T16:29:57.005Z,93.00
2022-09-20T16:39:59.765Z,93.00
2022-09-20T16:50:02.372Z,93.30
2022-09-20T17:00:04.474Z,93.50
2022-09-20T17:10:06.550Z,93.70
2022-09-20T17:20:08.409Z,94.10
2022-09-20T17:30:10.731Z,94.20
2022-09-20T17:40:12.370Z,94.40
2022-09-20T17:50:15.228Z,94.90
2022-09-20T18:00:16.994Z,95.30
2022-09-20T18:10:18.619Z,95.70
2022-09-20T18:20:20.254Z,96.00
2022-09-20T18:30:21.928Z,95.90
2022-09-20T18:40:23.590Z,96.20
2022-09-20T18:50:26.575Z,95.40
2022-09-20T19:00:28.547Z,95.70
2022-09-20T19:10:43.401Z,96.10
2022-09-20T19:20:57.979Z,96.10
2022-09-20T19:31:00.155Z,96.40
2022-09-20T19:41:20.505Z,96.70
2022-09-20T19:51:22.528Z,97.00
2022-09-20T20:01:25.865Z,97.20
2022-09-20T20:11:44.792Z,96.90
2022-09-20T20:22:00.068Z,97.10
2022-09-20T20:32:02.059Z,97.10
2022-09-20T20:42:06.011Z,97.20
2022-09-20T20:52:08.942Z,97.50
2022-09-20T21:02:10.760Z,97.60
2022-09-20T21:12:13.085Z,97.90
2022-09-20T21:22:14.845Z,97.60
2022-09-20T21:32:16.684Z,97.70
2022-09-20T21:42:18.497Z,97.60
2022-09-20T21:52:20.206Z,97.80
2022-09-20T22:02:21.860Z,97.80
2022-09-20T22:12:24.249Z,98.10
2022-09-20T22:22:27.627Z,97.90
2022-09-20T22:32:29.274Z,97.70
2022-09-20T22:42:30.941Z,98.00
2022-09-20T22:52:32.604Z,97.80
2022-09-20T23:02:37.009Z,97.90
2022-09-20T23:12:38.787Z,98.10
2022-09-20T23:22:40.624Z,98.00
2022-09-20T23:32:42.811Z,98.00
2022-09-20T23:42:44.448Z,97.80
2022-09-20T23:52:46.109Z,98.10
